createdAt,value
2023-05-10T00:00:40.620Z,46.81
2023-05-10T00:01:40.626Z,46.86
2023-05-10T00:02:40.658Z,46.82
2023-05-10T00:03:40.624Z,46.81
2023-05-10T00:04:40.510Z,46.82
2023-05-10T00:05:40.470Z,46.81
2023-05-10T00:06:40.473Z,46.85
2023-05-10T00:07:40.403Z,46.81
2023-05-10T00:08:40.395Z,46.87
2023-05-10T00:09:40.362Z,46.85
2023-05-10T00:10:40.337Z,46.81
2023-05-10T00:11:40.298Z,46.82
2023-05-10T00:12:40.274Z,46.85
2023-05-10T00:13:40.273Z,46.80
2023-05-10T00:14:40.210Z,46.85
2023-05-10T00:15:40.180Z,46.86
2023-05-10T00:16:40.171Z,46.86
2023-05-10T00:17:40.205Z,46.83
2023-05-10T00:18:40.175Z,46.83
2023-05-10T00:19:40.080Z,46.82
2023-05-10T00:20:40.062Z,46.79
2023-05-10T00:21:40.023Z,46.82
2023-05-10T00:22:39.997Z,46.82
2023-05-10T00:23:39.973Z,46.80
2023-05-10T00:24:39.942Z,46.77
2023-05-10T00:25:39.904Z,46.80
2023-05-10T00:26:40.487Z,46.79
2023-05-10T00:27:39.849Z,46.78
2023-05-10T00:28:39.832Z,46.80
2023-05-10T00:29:39.793Z,46.83
2023-05-10T00:30:39.786Z,46.77
2023-05-10T00:31:39.804Z,46.82
2023-05-10T00:32:39.767Z,46.80
2023-05-10T00:33:39.685Z,46.77
2023-05-10T00:34:39.653Z,46.80
2023-05-10T00:35:39.637Z,46.81
2023-05-10T00:36:39.622Z,46.83
2023-05-10T00:37:39.593Z,46.82
2023-05-10T00:38:39.575Z,46.80
2023-05-10T00:39:39.573Z,46.85
2023-05-10T00:40:39.529Z,46.79
2023-05-10T00:41:39.505Z,46.85
2023-05-10T00:42:39.493Z,46.79
2023-05-10T00:43:39.494Z,46.86
2023-05-10T00:44:39.434Z,46.75
2023-05-10T00:45:39.420Z,46.79
2023-05-10T00:46:39.379Z,46.81
2023-05-10T00:47:39.407Z,46.78
2023-05-10T00:48:39.322Z,46.81
2023-05-10T00:49:39.306Z,46.81
2023-05-10T00:50:39.309Z,46.77
2023-05-10T00:51:39.276Z,46.73
2023-05-10T00:52:39.237Z,46.77
2023-05-10T00:53:39.202Z,46.75
2023-05-10T00:54:39.198Z,46.78
2023-05-10T00:55:39.147Z,46.77
2023-05-10T00:56:39.135Z,46.80
2023-05-10T00:57:39.106Z,46.76
2023-05-10T00:58:39.073Z,46.75
2023-05-10T00:59:39.035Z,46.76
2023-05-10T01:00:39.045Z,46.77
2023-05-10T01:01:39.008Z,46.79
2023-05-10T01:02:39.057Z,46.79
2023-05-10T01:03:39.018Z,46.79
2023-05-10T01:04:38.954Z,46.78
2023-05-10T01:05:38.885Z,46.74
2023-05-10T01:06:38.846Z,46.80
2023-05-10T01:07:38.876Z,46.77
2023-05-10T01:08:38.819Z,46.80
2023-05-10T01:09:38.842Z,46.84
2023-05-10T01:10:38.743Z,46.79
2023-05-10T01:11:38.725Z,46.76
2023-05-10T01:12:38.789Z,46.79
2023-05-10T01:13:39.014Z,46.76
2023-05-10T01:14:38.648Z,46.73
2023-05-10T01:15:38.687Z,46.70
2023-05-10T01:16:38.585Z,46.71
2023-05-10T01:17:38.611Z,46.69
2023-05-10T01:18:38.525Z,46.69
2023-05-10T01:19:38.500Z,46.68
2023-05-10T01:20:38.489Z,46.63
2023-05-10T01:21:38.459Z,46.68
2023-05-10T01:22:38.421Z,46.74
2023-05-10T01:23:38.518Z,46.73
2023-05-10T01:24:38.374Z,46.70
2023-05-10T01:25:38.359Z,46.73
2023-05-10T01:26:38.365Z,46.77
2023-05-10T01:27:38.327Z,46.77
2023-05-10T01:28:38.309Z,46.75
2023-05-10T01:29:38.272Z,46.75
2023-05-10T01:30:38.253Z,46.72
2023-05-10T01:31:38.221Z,46.77
2023-05-10T01:32:38.225Z,46.77
2023-05-10T01:33:38.184Z,46.77
2023-05-10T01:34:38.143Z,46.78
2023-05-10T01:35:38.137Z,46.79
2023-05-10T01:36:38.106Z,46.83
2023-05-10T01:37:38.174Z,46.79
2023-05-10T01:38:38.062Z,46.76
2023-05-10T01:39:38.044Z,46.73
2023-05-10T01:40:38.009Z,46.72
2023-05-10T01:41:38.007Z,46.77
2023-05-10T01:42:37.972Z,46.73
2023-05-10T01:43:37.948Z,46.79
2023-05-10T01:44:37.918Z,46.73
2023-05-10T01:45:37.905Z,46.78
2023-05-10T01:46:37.969Z,46.83
2023-05-10T01:47:37.851Z,46.73
2023-05-10T01:48:37.842Z,46.72
2023-05-10T01:49:37.821Z,46.75
2023-05-10T01:50:37.791Z,46.71
2023-05-10T01:51:37.747Z,46.69
2023-05-10T01:52:37.732Z,46.72
2023-05-10T01:53:37.696Z,46.76
2023-05-10T01:54:37.680Z,46.72
2023-05-10T01:55:37.652Z,46.71
2023-05-10T01:56:37.617Z,46.73
2023-05-10T01:57:37.596Z,46.67
2023-05-10T01:58:37.560Z,46.70
2023-05-10T01:59:37.565Z,46.69
2023-05-10T02:00:37.579Z,46.72
2023-05-10T02:01:37.488Z,46.73
2023-05-10T02:02:37.457Z,46.68
2023-05-10T02:03:37.462Z,46.67
2023-05-10T02:04:37.436Z,46.74
2023-05-10T02:05:37.394Z,46.67
2023-05-10T02:06:37.394Z,46.70
2023-05-10T02:07:37.353Z,46.73
2023-05-10T02:08:37.329Z,46.74
2023-05-10T02:09:37.295Z,46.75
2023-05-10T02:10:37.274Z,46.73
2023-05-10T02:11:37.252Z,46.77
2023-05-10T02:12:37.239Z,46.75
2023-05-10T02:13:37.243Z,46.78
2023-05-10T02:14:37.248Z,46.74
2023-05-10T02:15:37.172Z,46.73
2023-05-10T02:16:37.190Z,46.80
2023-05-10T02:17:37.185Z,46.74
2023-05-10T02:18:37.104Z,46.75
2023-05-10T02:19:37.074Z,46.77
2023-05-10T02:20:37.052Z,46.79
2023-05-10T02:21:37.014Z,46.78
2023-05-10T02:22:36.996Z,46.76
2023-05-10T02:23:36.976Z,46.72
2023-05-10T02:24:36.950Z,46.72
2023-05-10T02:25:36.940Z,46.72
2023-05-10T02:26:36.932Z,46.73
2023-05-10T02:27:36.922Z,46.72
2023-05-10T02:28:36.919Z,46.70
2023-05-10T02:29:36.903Z,46.67
2023-05-10T02:30:36.883Z,46.66
2023-05-10T02:31:36.905Z,46.64
2023-05-10T02:32:36.884Z,46.67
2023-05-10T02:33:36.860Z,46.63
2023-05-10T02:34:36.850Z,46.69
2023-05-10T02:35:36.836Z,46.68
2023-05-10T02:36:36.847Z,46.71
2023-05-10T02:37:36.828Z,46.72
2023-05-10T02:38:36.811Z,46.71
2023-05-10T02:39:36.802Z,46.69
2023-05-10T02:40:36.803Z,46.68
2023-05-10T02:41:36.800Z,46.67
2023-05-10T02:42:36.797Z,46.65
2023-05-10T02:43:36.786Z,46.68
2023-05-10T02:44:36.821Z,46.68
2023-05-10T02:45:36.810Z,46.68
2023-05-10T02:46:36.855Z,46.69
2023-05-10T02:47:36.827Z,46.74
2023-05-10T02:48:36.803Z,46.72
2023-05-10T02:49:36.788Z,46.71
2023-05-10T02:50:36.779Z,46.68
2023-05-10T02:51:36.776Z,46.71
2023-05-10T02:52:36.779Z,46.69
2023-05-10T02:53:36.786Z,46.64
2023-05-10T02:54:36.777Z,46.71
2023-05-10T02:55:36.765Z,46.69
2023-05-10T02:56:36.765Z,46.74
2023-05-10T02:57:36.753Z,46.76
2023-05-10T02:58:36.743Z,46.74
2023-05-10T02:59:36.727Z,46.72
2023-05-10T03:00:36.724Z,46.77
2023-05-10T03:01:36.765Z,46.72
2023-05-10T03:02:36.765Z,46.71
2023-05-10T03:03:36.730Z,46.74
2023-05-10T03:04:36.744Z,46.75
2023-05-10T03:05:36.710Z,46.77
2023-05-10T03:06:36.715Z,46.77
2023-05-10T03:07:36.713Z,46.69
2023-05-10T03:08:36.713Z,46.73
2023-05-10T03:09:36.728Z,46.75
2023-05-10T03:10:36.700Z,46.77
2023-05-10T03:11:36.742Z,46.76
2023-05-10T03:12:36.706Z,46.76
2023-05-10T03:13:36.718Z,46.74
2023-05-10T03:14:36.716Z,46.71
2023-05-10T03:15:36.715Z,46.71
2023-05-10T03:16:36.705Z,46.73
2023-05-10T03:17:36.747Z,46.73
2023-05-10T03:18:36.711Z,46.73
2023-05-10T03:19:36.713Z,46.74
2023-05-10T03:20:36.710Z,46.73
2023-05-10T03:21:36.713Z,46.70
2023-05-10T03:22:36.710Z,46.73
2023-05-10T03:23:36.714Z,46.72
2023-05-10T03:24:36.701Z,46.71
2023-05-10T03:25:36.696Z,46.71
2023-05-10T03:26:36.702Z,46.68
2023-05-10T03:27:36.796Z,46.73
2023-05-10T03:28:36.757Z,46.72
2023-05-10T03:29:36.691Z,46.75
2023-05-10T03:30:36.700Z,46.70
2023-05-10T03:31:36.736Z,46.73
2023-05-10T03:32:36.715Z,46.72
2023-05-10T03:33:36.714Z,46.67
2023-05-10T03:34:36.722Z,46.70
2023-05-10T03:35:36.706Z,46.72
2023-05-10T03:36:36.709Z,46.68
2023-05-10T03:37:36.712Z,46.69
2023-05-10T03:38:36.731Z,46.74
2023-05-10T03:39:36.719Z,46.70
2023-05-10T03:40:36.740Z,46.73
2023-05-10T03:41:36.717Z,46.74
2023-05-10T03:42:36.740Z,46.69
2023-05-10T03:43:36.776Z,46.66
2023-05-10T03:44:36.734Z,46.67
2023-05-10T03:45:36.746Z,46.67
2023-05-10T03:46:36.762Z,46.64
2023-05-10T03:47:36.797Z,46.69
2023-05-10T03:48:36.759Z,46.67
2023-05-10T03:49:36.765Z,46.68
2023-05-10T03:50:36.778Z,46.63
2023-05-10T03:51:36.762Z,46.68
2023-05-10T03:52:36.772Z,46.68
2023-05-10T03:53:36.769Z,46.70
2023-05-10T03:54:36.788Z,46.65
2023-05-10T03:55:36.774Z,46.73
2023-05-10T03:56:36.789Z,46.70
2023-05-10T03:57:36.786Z,46.68
2023-05-10T03:58:36.796Z,46.64
2023-05-10T03:59:36.812Z,46.67
2023-05-10T04:00:36.817Z,46.67
2023-05-10T04:01:36.849Z,46.66
2023-05-10T04:02:36.937Z,46.67
2023-05-10T04:03:36.894Z,46.62
2023-05-10T04:04:36.831Z,46.63
2023-05-10T04:05:36.833Z,46.64
2023-05-10T04:06:36.904Z,46.67
2023-05-10T04:07:36.853Z,46.62
2023-05-10T04:08:36.838Z,46.62
2023-05-10T04:09:36.851Z,46.52
2023-05-10T04:10:36.853Z,46.54
2023-05-10T04:11:36.866Z,46.55
2023-05-10T04:12:36.868Z,46.59
2023-05-10T04:13:36.864Z,46.63
2023-05-10T04:14:36.869Z,46.59
2023-05-10T04:15:36.892Z,46.59
2023-05-10T04:16:36.929Z,46.56
2023-05-10T04:17:36.931Z,46.60
2023-05-10T04:18:36.898Z,46.59
2023-05-10T04:19:36.904Z,46.67
2023-05-10T04:20:36.936Z,46.59
2023-05-10T04:21:36.922Z,46.56
2023-05-10T04:22:36.935Z,46.61
2023-05-10T04:23:36.982Z,46.58
2023-05-10T04:24:36.944Z,46.58
2023-05-10T04:25:36.954Z,46.61
2023-05-10T04:26:36.984Z,46.54
2023-05-10T04:27:36.994Z,46.51
2023-05-10T04:28:36.983Z,46.54
2023-05-10T04:29:36.987Z,46.50
2023-05-10T04:30:37.038Z,46.53
2023-05-10T04:31:37.003Z,46.50
2023-05-10T04:32:37.092Z,46.58
2023-05-10T04:33:37.026Z,46.60
2023-05-10T04:34:37.064Z,46.52
2023-05-10T04:35:37.058Z,46.54
2023-05-10T04:36:37.069Z,46.55
2023-05-10T04:37:37.080Z,46.47
2023-05-10T04:38:37.091Z,46.50
2023-05-10T04:39:37.110Z,46.60
2023-05-10T04:40:37.116Z,46.45
2023-05-10T04:41:37.133Z,46.49
2023-05-10T04:42:37.143Z,46.45
2023-05-10T04:43:37.258Z,46.51
2023-05-10T04:44:37.198Z,46.53
2023-05-10T04:45:37.166Z,46.55
2023-05-10T04:46:37.297Z,46.63
2023-05-10T04:47:37.253Z,46.57
2023-05-10T04:48:37.214Z,46.52
2023-05-10T04:49:37.231Z,46.44
2023-05-10T04:50:37.225Z,46.52
2023-05-10T04:51:37.333Z,46.54
2023-05-10T04:52:37.256Z,46.48
2023-05-10T04:53:38.066Z,46.49
2023-05-10T04:54:37.274Z,46.49
2023-05-10T04:55:37.280Z,46.47
2023-05-10T04:56:37.275Z,46.48
2023-05-10T04:57:37.295Z,46.47
2023-05-10T04:58:37.299Z,46.46
2023-05-10T04:59:37.331Z,46.42
2023-05-10T05:00:37.324Z,46.43
2023-05-10T05:01:37.384Z,46.39
2023-05-10T05:02:37.467Z,46.49
2023-05-10T05:03:37.392Z,46.45
2023-05-10T05:04:37.358Z,46.41
2023-05-10T05:05:37.401Z,46.38
2023-05-10T05:06:37.391Z,46.44
2023-05-10T05:07:37.462Z,46.42
2023-05-10T05:08:37.398Z,46.43
2023-05-10T05:09:37.402Z,46.41
2023-05-10T05:10:37.408Z,46.42
2023-05-10T05:11:37.408Z,46.36
2023-05-10T05:12:37.420Z,46.43
2023-05-10T05:13:37.429Z,46.41
2023-05-10T05:14:37.464Z,46.45
2023-05-10T05:15:37.452Z,46.43
2023-05-10T05:16:37.607Z,46.39
2023-05-10T05:17:37.498Z,46.39
2023-05-10T05:18:37.470Z,46.44
2023-05-10T05:19:37.480Z,46.60
2023-05-10T05:20:37.490Z,46.40
2023-05-10T05:21:37.495Z,46.73
2023-05-10T05:22:37.576Z,46.65
2023-05-10T05:23:37.503Z,46.76
2023-05-10T05:24:37.528Z,46.68
2023-05-10T05:25:37.539Z,46.68
2023-05-10T05:26:38.505Z,46.94
2023-05-10T05:27:37.614Z,47.14
2023-05-10T05:28:37.546Z,48.17
2023-05-10T05:29:38.512Z,47.37
2023-05-10T05:30:37.507Z,47.56
2023-05-10T05:31:39.082Z,47.54
2023-05-10T05:32:37.457Z,47.01
2023-05-10T05:33:37.404Z,47.30
2023-05-10T05:34:37.396Z,47.21
2023-05-10T05:35:37.371Z,47.31
2023-05-10T05:36:37.711Z,47.45
2023-05-10T05:37:37.306Z,47.50
2023-05-10T05:38:37.284Z,47.84
2023-05-10T05:39:37.297Z,47.93
2023-05-10T05:40:37.388Z,48.03
2023-05-10T05:41:37.213Z,48.20
2023-05-10T05:42:37.172Z,48.38
2023-05-10T05:43:38.328Z,48.85
2023-05-10T05:44:37.181Z,48.75
2023-05-10T05:45:37.269Z,48.79
2023-05-10T05:46:37.249Z,48.85
2023-05-10T05:47:37.393Z,49.03
2023-05-10T05:48:37.332Z,49.09
2023-05-10T05:49:37.366Z,49.12
2023-05-10T05:50:37.371Z,49.18
2023-05-10T05:51:37.391Z,49.35
2023-05-10T05:52:37.419Z,49.44
2023-05-10T05:53:37.434Z,49.46
2023-05-10T05:54:39.059Z,49.65
2023-05-10T05:55:37.462Z,49.72
2023-05-10T05:56:37.460Z,49.85
2023-05-10T05:57:37.487Z,49.94
2023-05-10T05:58:37.489Z,50.10
2023-05-10T05:59:37.486Z,50.08
2023-05-10T06:00:37.529Z,50.18
2023-05-10T06:01:37.484Z,50.64
2023-05-10T06:02:37.630Z,50.67
2023-05-10T06:03:37.561Z,50.61
2023-05-10T06:04:37.532Z,50.60
2023-05-10T06:05:37.629Z,50.62
2023-05-10T06:06:37.479Z,50.73
2023-05-10T06:07:37.492Z,50.82
2023-05-10T06:08:37.467Z,51.22
2023-05-10T06:09:37.467Z,51.11
2023-05-10T06:10:37.451Z,51.06
2023-05-10T06:11:37.490Z,51.38
2023-05-10T06:12:37.419Z,51.48
2023-05-10T06:13:37.403Z,51.43
2023-05-10T06:14:37.377Z,51.37
2023-05-10T06:15:37.382Z,51.42
2023-05-10T06:16:37.390Z,51.61
2023-05-10T06:17:37.341Z,51.54
2023-05-10T06:18:37.297Z,51.74
2023-05-10T06:19:37.269Z,51.78
2023-05-10T06:20:37.276Z,51.83
2023-05-10T06:21:37.234Z,52.03
2023-05-10T06:22:37.199Z,51.93
2023-05-10T06:23:37.159Z,52.10
2023-05-10T06:24:37.170Z,52.13
2023-05-10T06:25:37.162Z,52.22
2023-05-10T06:26:37.609Z,52.33
2023-05-10T06:27:37.160Z,51.37
2023-05-10T06:28:37.158Z,47.64
2023-05-10T06:29:37.050Z,46.67
2023-05-10T06:30:37.068Z,45.31
2023-05-10T06:31:37.133Z,44.17
2023-05-10T06:32:37.092Z,44.67
2023-05-10T06:33:37.072Z,44.85
2023-05-10T06:34:37.049Z,45.08
2023-05-10T06:35:37.047Z,44.52
2023-05-10T06:36:37.041Z,44.74
2023-05-10T06:37:37.032Z,44.60
2023-05-10T06:38:37.058Z,44.74
2023-05-10T06:39:37.051Z,44.38
2023-05-10T06:40:37.609Z,44.80
2023-05-10T06:41:37.062Z,44.44
2023-05-10T06:42:37.069Z,43.82
2023-05-10T06:43:37.039Z,43.68
2023-05-10T06:44:37.034Z,43.64
2023-05-10T06:45:37.034Z,43.82
2023-05-10T06:46:37.079Z,43.38
2023-05-10T06:47:38.794Z,43.06
2023-05-10T06:48:37.049Z,43.24
2023-05-10T06:49:38.035Z,43.55
2023-05-10T06:50:36.999Z,43.83
2023-05-10T06:51:36.963Z,44.30
2023-05-10T06:52:36.938Z,44.59
2023-05-10T06:53:36.941Z,44.36
2023-05-10T06:54:36.916Z,44.68
2023-05-10T06:55:36.886Z,44.61
2023-05-10T06:56:36.839Z,44.65
2023-05-10T06:57:36.813Z,44.60
2023-05-10T06:58:36.838Z,44.76
2023-05-10T06:59:36.850Z,45.01
2023-05-10T07:00:36.816Z,44.90
2023-05-10T07:01:36.828Z,45.20
2023-05-10T07:02:36.895Z,45.37
2023-05-10T07:03:36.856Z,45.00
2023-05-10T07:04:36.940Z,45.33
2023-05-10T07:05:36.982Z,45.31
2023-05-10T07:06:36.950Z,45.03
2023-05-10T07:07:36.955Z,44.73
2023-05-10T07:08:36.975Z,44.65
2023-05-10T07:09:36.996Z,44.50
2023-05-10T07:10:37.029Z,44.52
2023-05-10T07:11:37.025Z,44.23
2023-05-10T07:12:37.090Z,44.28
2023-05-10T07:13:37.037Z,44.42
2023-05-10T07:14:37.052Z,44.43
2023-05-10T07:15:37.062Z,44.79
2023-05-10T07:16:37.102Z,44.95
2023-05-10T07:17:37.155Z,44.60
2023-05-10T07:18:37.111Z,44.42
2023-05-10T07:19:37.117Z,44.26
2023-05-10T07:20:37.105Z,44.14
2023-05-10T07:21:37.210Z,44.12
2023-05-10T07:22:37.213Z,44.12
2023-05-10T07:23:37.188Z,44.19
2023-05-10T07:24:37.190Z,44.24
2023-05-10T07:25:37.218Z,44.32
2023-05-10T07:26:37.266Z,44.37
2023-05-10T07:27:37.285Z,44.59
2023-05-10T07:28:37.303Z,44.61
2023-05-10T07:29:37.362Z,44.64
2023-05-10T07:30:37.387Z,44.70
2023-05-10T07:31:37.429Z,44.79
2023-05-10T07:32:37.511Z,44.97
2023-05-10T07:33:37.478Z,45.07
2023-05-10T07:34:37.517Z,45.11
2023-05-10T07:35:37.559Z,45.13
2023-05-10T07:36:37.597Z,45.15
2023-05-10T07:37:37.632Z,45.20
2023-05-10T07:38:40.243Z,45.24
2023-05-10T07:39:37.643Z,45.25
2023-05-10T07:40:37.623Z,45.29
2023-05-10T07:41:37.596Z,45.35
2023-05-10T07:42:37.616Z,45.36
2023-05-10T07:43:37.538Z,45.39
2023-05-10T07:44:37.519Z,45.44
2023-05-10T07:45:37.505Z,45.44
2023-05-10T07:46:37.523Z,45.48
2023-05-10T07:47:37.485Z,45.50
2023-05-10T07:48:37.412Z,45.51
2023-05-10T07:49:37.392Z,45.52
2023-05-10T07:50:37.347Z,45.55
2023-05-10T07:51:37.319Z,45.58
2023-05-10T07:52:37.290Z,45.55
2023-05-10T07:53:37.261Z,45.57
2023-05-10T07:54:37.242Z,45.56
2023-05-10T07:55:37.211Z,45.57
2023-05-10T07:56:37.199Z,45.57
2023-05-10T07:57:37.141Z,45.61
2023-05-10T07:58:37.114Z,45.61
2023-05-10T07:59:37.102Z,45.63
2023-05-10T08:00:37.064Z,45.62
2023-05-10T08:01:37.051Z,45.64
2023-05-10T08:02:37.155Z,45.63
2023-05-10T08:03:37.134Z,45.64
2023-05-10T08:04:36.999Z,45.65
2023-05-10T08:05:36.923Z,45.65
2023-05-10T08:06:36.907Z,45.66
2023-05-10T08:07:36.871Z,45.64
2023-05-10T08:08:36.846Z,45.63
2023-05-10T08:09:36.823Z,45.65
2023-05-10T08:10:36.796Z,45.65
2023-05-10T08:11:37.707Z,45.68
2023-05-10T08:12:36.739Z,45.67
2023-05-10T08:13:36.715Z,45.63
2023-05-10T08:14:36.686Z,45.64
2023-05-10T08:15:36.688Z,45.64
2023-05-10T08:16:36.632Z,45.59
2023-05-10T08:17:36.624Z,45.62
2023-05-10T08:18:36.606Z,45.59
2023-05-10T08:19:36.557Z,45.60
2023-05-10T08:20:36.554Z,45.60
2023-05-10T08:21:36.583Z,45.60
2023-05-10T08:22:36.599Z,45.59
2023-05-10T08:23:36.612Z,45.61
2023-05-10T08:24:36.608Z,45.63
2023-05-10T08:25:36.627Z,45.62
2023-05-10T08:26:36.611Z,45.57
2023-05-10T08:27:36.616Z,45.58
2023-05-10T08:28:36.656Z,45.57
2023-05-10T08:29:48.921Z,45.56
2023-05-10T08:30:37.635Z,45.59
2023-05-10T08:31:36.647Z,45.56
2023-05-10T08:32:36.614Z,45.59
2023-05-10T08:33:36.552Z,45.60
2023-05-10T08:34:36.534Z,45.58
2023-05-10T08:35:36.511Z,45.54
2023-05-10T08:36:36.480Z,45.56
2023-05-10T08:37:36.450Z,45.54
2023-05-10T08:38:36.459Z,45.53
2023-05-10T08:39:36.429Z,45.51
2023-05-10T08:40:36.658Z,45.51
2023-05-10T08:41:38.175Z,45.53
2023-05-10T08:42:36.531Z,45.53
2023-05-10T08:43:36.557Z,45.51
2023-05-10T08:44:36.572Z,45.53
2023-05-10T08:45:36.588Z,45.54
2023-05-10T08:46:36.651Z,45.52
2023-05-10T08:47:36.677Z,45.55
2023-05-10T08:48:36.644Z,45.51
2023-05-10T08:49:36.643Z,45.48
2023-05-10T08:50:36.682Z,45.47
2023-05-10T08:51:36.757Z,45.49
2023-05-10T08:52:36.720Z,45.48
2023-05-10T08:53:36.748Z,45.43
2023-05-10T08:54:36.797Z,45.46
2023-05-10T08:55:36.828Z,45.48
2023-05-10T08:56:36.817Z,45.44
2023-05-10T08:57:36.857Z,45.44
2023-05-10T08:58:37.774Z,45.48
2023-05-10T08:59:36.825Z,45.47
2023-05-10T09:00:36.872Z,45.44
2023-05-10T09:01:36.795Z,45.47
2023-05-10T09:02:36.767Z,45.45
2023-05-10T09:03:36.764Z,45.44
2023-05-10T09:04:36.839Z,45.49
2023-05-10T09:05:36.703Z,45.47
2023-05-10T09:06:36.677Z,45.45
2023-05-10T09:07:36.751Z,45.49
2023-05-10T09:08:36.611Z,45.46
2023-05-10T09:09:36.588Z,45.46
2023-05-10T09:10:36.581Z,45.43
2023-05-10T09:11:36.594Z,45.43
2023-05-10T09:12:36.571Z,45.49
2023-05-10T09:13:36.563Z,45.47
2023-05-10T09:14:36.564Z,45.42
2023-05-10T09:15:36.562Z,45.44
2023-05-10T09:16:36.590Z,45.42
2023-05-10T09:17:36.597Z,45.42
2023-05-10T09:18:36.577Z,45.43
2023-05-10T09:19:36.559Z,45.47
2023-05-10T09:20:36.515Z,45.46
2023-05-10T09:21:36.478Z,45.44
2023-05-10T09:22:36.449Z,45.47
2023-05-10T09:23:36.443Z,45.44
2023-05-10T09:24:36.401Z,45.43
2023-05-10T09:25:36.427Z,45.42
2023-05-10T09:26:36.353Z,45.43
2023-05-10T09:27:36.323Z,45.45
2023-05-10T09:28:36.290Z,45.43
2023-05-10T09:29:36.281Z,45.46
2023-05-10T09:30:36.296Z,45.50
2023-05-10T09:31:36.265Z,45.49
2023-05-10T09:32:36.223Z,45.46
2023-05-10T09:33:36.157Z,45.47
2023-05-10T09:34:36.133Z,45.49
2023-05-10T09:35:36.105Z,45.49
2023-05-10T09:36:36.078Z,45.47
2023-05-10T09:37:36.049Z,45.46
2023-05-10T09:38:36.008Z,45.48
2023-05-10T09:39:35.997Z,45.46
2023-05-10T09:40:35.959Z,45.46
2023-05-10T09:41:35.927Z,45.48
2023-05-10T09:42:35.907Z,45.46
2023-05-10T09:43:35.881Z,45.49
2023-05-10T09:44:35.880Z,45.43
2023-05-10T09:45:38.305Z,45.44
2023-05-10T09:46:35.835Z,45.45
2023-05-10T09:47:35.827Z,45.45
2023-05-10T09:48:35.755Z,45.44
2023-05-10T09:49:35.747Z,45.45
2023-05-10T09:50:35.715Z,45.42
2023-05-10T09:51:36.785Z,45.40
2023-05-10T09:52:35.664Z,45.41
2023-05-10T09:53:35.641Z,45.41
2023-05-10T09:54:35.647Z,45.40
2023-05-10T09:55:35.597Z,45.41
2023-05-10T09:56:35.582Z,45.37
2023-05-10T09:57:35.545Z,45.39
2023-05-10T09:58:35.525Z,45.36
2023-05-10T09:59:35.496Z,45.37
2023-05-10T10:00:35.477Z,45.38
2023-05-10T10:01:35.492Z,45.35
2023-05-10T10:02:35.476Z,45.35
2023-05-10T10:03:35.411Z,45.39
2023-05-10T10:04:35.425Z,45.32
2023-05-10T10:05:35.395Z,45.37
2023-05-10T10:06:35.363Z,45.36
2023-05-10T10:07:35.389Z,45.34
2023-05-10T10:08:35.306Z,45.36
2023-05-10T10:09:35.276Z,45.38
2023-05-10T10:10:35.249Z,45.35
2023-05-10T10:11:35.230Z,45.31
2023-05-10T10:12:35.202Z,45.33
2023-05-10T10:13:35.171Z,45.32
2023-05-10T10:14:35.140Z,45.34
2023-05-10T10:15:35.162Z,45.34
2023-05-10T10:16:35.117Z,45.34
2023-05-10T10:17:35.103Z,45.33
2023-05-10T10:18:35.080Z,45.34
2023-05-10T10:19:35.029Z,45.32
2023-05-10T10:20:34.985Z,45.30
2023-05-10T10:21:34.955Z,45.29
2023-05-10T10:22:34.934Z,45.30
2023-05-10T10:23:34.935Z,45.29
2023-05-10T10:24:34.982Z,45.28
2023-05-10T10:25:34.879Z,45.30
2023-05-10T10:26:34.848Z,45.24
2023-05-10T10:27:34.829Z,45.28
2023-05-10T10:28:34.794Z,45.28
2023-05-10T10:29:34.760Z,45.25
2023-05-10T10:30:34.757Z,45.27
2023-05-10T10:31:34.791Z,45.28
2023-05-10T10:32:34.735Z,45.26
2023-05-10T10:33:34.775Z,45.27
2023-05-10T10:34:34.659Z,45.26
2023-05-10T10:35:34.610Z,45.26
2023-05-10T10:36:34.576Z,45.24
2023-05-10T10:37:34.567Z,45.27
2023-05-10T10:38:34.526Z,45.27
2023-05-10T10:39:34.525Z,45.25
2023-05-10T10:40:35.100Z,45.31
2023-05-10T10:41:34.457Z,45.27
2023-05-10T10:42:34.501Z,45.26
2023-05-10T10:43:34.386Z,45.26
2023-05-10T10:44:34.394Z,45.27
2023-05-10T10:45:35.333Z,45.26
2023-05-10T10:46:34.364Z,45.26
2023-05-10T10:47:34.432Z,45.25
2023-05-10T10:48:34.266Z,45.26
2023-05-10T10:49:34.255Z,45.25
2023-05-10T10:50:34.235Z,45.23
2023-05-10T10:51:34.171Z,45.25
2023-05-10T10:52:34.289Z,45.22
2023-05-10T10:53:34.151Z,45.25
2023-05-10T10:54:34.082Z,45.21
2023-05-10T10:55:34.082Z,45.20
2023-05-10T10:56:35.161Z,45.20
2023-05-10T10:57:33.989Z,45.21
2023-05-10T10:58:34.006Z,45.18
2023-05-10T10:59:33.969Z,45.18
2023-05-10T11:00:33.973Z,45.18
2023-05-10T11:01:34.010Z,45.16
2023-05-10T11:02:33.943Z,45.19
2023-05-10T11:03:33.910Z,45.17
2023-05-10T11:04:33.969Z,45.17
2023-05-10T11:05:33.861Z,45.16
2023-05-10T11:06:33.863Z,45.16
2023-05-10T11:07:33.838Z,45.17
2023-05-10T11:08:35.114Z,45.15
2023-05-10T11:09:34.116Z,45.15
2023-05-10T11:10:33.774Z,45.16
2023-05-10T11:11:33.748Z,45.14
2023-05-10T11:12:33.714Z,45.15
2023-05-10T11:13:33.685Z,45.15
2023-05-10T11:14:33.685Z,45.11
2023-05-10T11:15:33.640Z,45.10
2023-05-10T11:16:33.657Z,45.13
2023-05-10T11:17:33.617Z,45.13
2023-05-10T11:18:33.556Z,45.12
2023-05-10T11:19:33.513Z,45.10
2023-05-10T11:20:33.484Z,45.11
2023-05-10T11:21:33.486Z,45.10
2023-05-10T11:22:33.487Z,45.10
2023-05-10T11:23:33.433Z,45.12
2023-05-10T11:24:33.373Z,45.10
2023-05-10T11:25:33.345Z,45.11
2023-05-10T11:26:33.306Z,45.13
2023-05-10T11:27:33.276Z,45.09
2023-05-10T11:28:33.260Z,45.11
2023-05-10T11:29:33.225Z,45.09
2023-05-10T11:30:33.274Z,45.08
2023-05-10T11:31:33.193Z,45.09
2023-05-10T11:32:33.176Z,45.08
2023-05-10T11:33:33.717Z,45.05
2023-05-10T11:34:33.070Z,45.05
2023-05-10T11:35:33.046Z,45.05
2023-05-10T11:36:33.034Z,45.04
2023-05-10T11:37:32.977Z,45.05
2023-05-10T11:38:32.936Z,45.03
2023-05-10T11:39:32.921Z,45.03
2023-05-10T11:40:32.886Z,45.01
2023-05-10T11:41:32.883Z,45.00
2023-05-10T11:42:32.820Z,45.00
2023-05-10T11:43:32.813Z,45.01
2023-05-10T11:44:32.827Z,45.00
2023-05-10T11:45:32.733Z,45.00
2023-05-10T11:46:32.840Z,44.99
2023-05-10T11:47:32.717Z,44.97
2023-05-10T11:48:32.630Z,44.99
2023-05-10T11:49:32.593Z,45.00
2023-05-10T11:50:32.565Z,45.01
2023-05-10T11:51:32.534Z,44.96
2023-05-10T11:52:32.502Z,44.95
2023-05-10T11:53:32.478Z,44.96
2023-05-10T11:54:32.429Z,44.96
2023-05-10T11:55:32.419Z,44.96
2023-05-10T11:56:32.553Z,44.94
2023-05-10T11:57:32.347Z,44.96
2023-05-10T11:58:32.321Z,44.95
2023-05-10T11:59:32.284Z,44.95
2023-05-10T12:00:32.264Z,44.94
2023-05-10T12:01:32.236Z,44.95
2023-05-10T12:02:33.250Z,44.95
2023-05-10T12:03:32.400Z,44.95
2023-05-10T12:04:32.178Z,44.92
2023-05-10T12:05:32.087Z,44.91
2023-05-10T12:06:32.263Z,44.91
2023-05-10T12:07:32.041Z,44.91
2023-05-10T12:08:32.047Z,44.94
2023-05-10T12:09:43.072Z,44.92
2023-05-10T12:10:32.935Z,44.95
2023-05-10T12:11:31.924Z,44.94
2023-05-10T12:12:31.889Z,44.91
2023-05-10T12:13:31.863Z,44.94
2023-05-10T12:14:31.816Z,44.91
2023-05-10T12:15:31.786Z,44.92
2023-05-10T12:16:31.915Z,44.90
2023-05-10T12:17:31.819Z,44.87
2023-05-10T12:18:32.676Z,44.89
2023-05-10T12:19:31.700Z,44.86
2023-05-10T12:20:31.652Z,44.87
2023-05-10T12:21:31.680Z,44.89
2023-05-10T12:22:31.587Z,44.89
2023-05-10T12:23:31.562Z,44.89
2023-05-10T12:24:32.279Z,44.86
2023-05-10T12:25:31.488Z,44.83
2023-05-10T12:26:31.617Z,44.86
2023-05-10T12:27:31.429Z,44.86
2023-05-10T12:28:31.404Z,44.84
2023-05-10T12:29:31.378Z,44.83
2023-05-10T12:30:31.350Z,44.83
2023-05-10T12:31:31.353Z,44.81
2023-05-10T12:32:31.327Z,44.83
2023-05-10T12:33:31.310Z,44.82
2023-05-10T12:34:31.212Z,44.80
2023-05-10T12:35:31.178Z,44.78
2023-05-10T12:36:31.284Z,44.79
2023-05-10T12:37:31.123Z,44.79
2023-05-10T12:38:31.113Z,44.79
2023-05-10T12:39:31.106Z,44.81
2023-05-10T12:40:31.096Z,44.77
2023-05-10T12:41:31.075Z,44.79
2023-05-10T12:42:31.085Z,44.80
2023-05-10T12:43:31.051Z,44.80
2023-05-10T12:44:31.056Z,44.81
2023-05-10T12:45:31.750Z,44.80
2023-05-10T12:46:31.146Z,44.79
2023-05-10T12:47:31.046Z,44.80
2023-05-10T12:48:31.022Z,44.83
2023-05-10T12:49:31.014Z,44.82
2023-05-10T12:50:31.014Z,44.84
2023-05-10T12:51:30.994Z,44.82
2023-05-10T12:52:30.974Z,44.87